createdAt,value
2023-05-12T00:00:02.245Z,1077.77
2023-05-12T00:00:47.468Z,1058.81
2023-05-12T00:01:32.964Z,1059.80
2023-05-12T00:02:17.674Z,1072.78
2023-05-12T00:03:02.732Z,1068.78
2023-05-12T00:03:47.957Z,1067.79
2023-05-12T00:04:32.967Z,1063.79
2023-05-12T00:05:17.623Z,1074.77
2023-05-12T00:06:02.349Z,1083.75
2023-05-12T00:06:48.102Z,328.73
2023-05-12T00:07:33.621Z,295.28
2023-05-12T00:08:17.858Z,330.32
2023-05-12T00:09:03.016Z,287.40
2023-05-12T00:09:48.345Z,324.33
2023-05-12T00:10:33.526Z,408.15
2023-05-12T00:11:18.072Z,393.18
2023-05-12T00:12:03.154Z,419.13
2023-05-12T00:12:48.060Z,426.12
2023-05-12T00:13:33.791Z,423.12
2023-05-12T00:14:18.666Z,387.20
2023-05-12T00:15:03.343Z,628.70
2023-05-12T00:15:48.609Z,1070.78
2023-05-12T00:16:33.581Z,1072.78
2023-05-12T00:17:18.850Z,1066.79
2023-05-12T00:18:03.706Z,1069.78
2023-05-12T00:18:48.672Z,1073.77
2023-05-12T00:19:34.113Z,1076.77
2023-05-12T00:20:18.898Z,1074.77
2023-05-12T00:21:04.017Z,1072.78
2023-05-12T00:21:48.985Z,1071.78
2023-05-12T00:22:33.997Z,1077.77
2023-05-12T00:23:19.084Z,1080.76
2023-05-12T00:24:03.924Z,1070.78
2023-05-12T00:24:49.173Z,1077.77
2023-05-12T00:25:34.372Z,1074.77
2023-05-12T00:26:19.495Z,1076.77
2023-05-12T00:27:04.549Z,1088.74
2023-05-12T00:27:49.497Z,1080.76
2023-05-12T00:28:34.688Z,1072.78
2023-05-12T00:29:19.505Z,1083.75
2023-05-12T00:30:04.898Z,1075.77
2023-05-12T00:30:49.757Z,1086.75
2023-05-12T00:31:34.827Z,1084.75
2023-05-12T00:32:19.958Z,1072.78
2023-05-12T00:33:05.000Z,1072.78
2023-05-12T00:33:49.764Z,1074.77
2023-05-12T00:34:34.753Z,1074.77
2023-05-12T00:35:20.168Z,1075.77
2023-05-12T00:36:05.233Z,1072.78
2023-05-12T00:36:50.056Z,1076.77
2023-05-12T00:37:35.034Z,1072.94
2023-05-12T00:38:20.292Z,1073.77
2023-05-12T00:39:05.264Z,1078.76
2023-05-12T00:39:50.531Z,1082.76
2023-05-12T00:40:35.364Z,1077.77
2023-05-12T00:41:20.624Z,1081.10
2023-05-12T00:42:05.652Z,1075.77
2023-05-12T00:42:51.008Z,1087.74
2023-05-12T00:43:35.689Z,1085.09
2023-05-12T00:44:20.749Z,1084.91
2023-05-12T00:45:05.735Z,1096.07
2023-05-12T00:45:51.275Z,1095.07
2023-05-12T00:46:36.079Z,1085.09
2023-05-12T00:47:21.175Z,1083.09
2023-05-12T00:48:06.053Z,1083.09
2023-05-12T00:48:51.084Z,1078.10
2023-05-12T00:49:36.149Z,1083.09
2023-05-12T00:50:21.553Z,1098.07
2023-05-12T00:51:06.464Z,1082.10
2023-05-12T00:51:51.569Z,1083.09
2023-05-12T00:52:36.806Z,1082.91
2023-05-12T00:53:21.430Z,1084.09
2023-05-12T00:54:06.481Z,1082.10
2023-05-12T00:54:51.236Z,1089.89
2023-05-12T00:55:36.505Z,1091.08
2023-05-12T00:56:21.656Z,1091.08
2023-05-12T00:57:06.951Z,1092.08
2023-05-12T00:57:51.674Z,1091.08
2023-05-12T00:58:36.726Z,1091.08
2023-05-12T00:59:21.993Z,1093.08
2023-05-12T01:00:06.942Z,1080.10
2023-05-12T01:00:51.906Z,1091.08
2023-05-12T01:01:37.001Z,1083.09
2023-05-12T01:02:22.160Z,1086.09
2023-05-12T01:03:07.109Z,1086.09
2023-05-12T01:03:52.227Z,1086.09
2023-05-12T01:04:36.974Z,1084.09
2023-05-12T01:05:22.843Z,1082.10
2023-05-12T01:06:07.306Z,1086.09
2023-05-12T01:06:52.339Z,1083.09
2023-05-12T01:07:37.600Z,1080.10
2023-05-12T01:08:22.361Z,1089.08
2023-05-12T01:09:07.825Z,1084.09
2023-05-12T01:09:52.565Z,1074.38
2023-05-12T01:10:37.456Z,1087.09
2023-05-12T01:11:22.812Z,1087.35
2023-05-12T01:12:08.081Z,1089.08
2023-05-12T01:12:53.171Z,1083.36
2023-05-12T01:13:37.894Z,1077.10
2023-05-12T01:14:22.908Z,1084.09
2023-05-12T01:15:08.992Z,1083.09
2023-05-12T01:15:52.916Z,1091.08
2023-05-12T01:16:37.763Z,1086.09
2023-05-12T01:17:23.136Z,1100.06
2023-05-12T01:18:08.541Z,1093.34
2023-05-12T01:18:53.210Z,1096.07
2023-05-12T01:19:38.241Z,1084.36
2023-05-12T01:20:23.268Z,1084.09
2023-05-12T01:21:08.791Z,1088.09
2023-05-12T01:21:53.577Z,1087.09
2023-05-12T01:22:38.584Z,1086.09
2023-05-12T01:23:23.481Z,1093.08
2023-05-12T01:24:10.086Z,1088.09
2023-05-12T01:24:53.592Z,1087.09
2023-05-12T01:25:39.269Z,1087.09
2023-05-12T01:26:24.060Z,1084.09
2023-05-12T01:27:08.864Z,1083.09
2023-05-12T01:27:53.854Z,1097.07
2023-05-12T01:28:38.878Z,1088.09
2023-05-12T01:29:23.737Z,1082.10
2023-05-12T01:30:09.141Z,1073.11
2023-05-12T01:30:54.180Z,1074.40
2023-05-12T01:31:38.919Z,1078.86
2023-05-12T01:32:24.228Z,1092.03
2023-05-12T01:33:09.828Z,1083.04
2023-05-12T01:33:54.404Z,1079.20
2023-05-12T01:34:39.399Z,1085.20
2023-05-12T01:35:24.382Z,1081.34
2023-05-12T01:36:09.462Z,1058.35
2023-05-12T01:36:54.304Z,1070.34
2023-05-12T01:37:39.656Z,1084.45
2023-05-12T01:38:24.615Z,1085.45
2023-05-12T01:39:09.681Z,1080.45
2023-05-12T01:39:54.716Z,1069.46
2023-05-12T01:40:39.678Z,1077.63
2023-05-12T01:41:24.650Z,1063.63
2023-05-12T01:42:09.905Z,1056.64
2023-05-12T01:42:54.684Z,1064.46
2023-05-12T01:43:40.123Z,1067.21
2023-05-12T01:44:24.957Z,1054.46
2023-05-12T01:45:10.077Z,1066.46
2023-05-12T01:45:55.276Z,1064.63
2023-05-12T01:46:40.144Z,1049.64
2023-05-12T01:47:25.303Z,1068.70
2023-05-12T01:48:09.869Z,1076.70
2023-05-12T01:48:54.987Z,1082.63
2023-05-12T01:49:40.258Z,1086.63
2023-05-12T01:50:25.214Z,1094.62
2023-05-12T01:51:10.264Z,1085.70
2023-05-12T01:51:55.553Z,1095.62
2023-05-12T01:52:40.597Z,1102.62
2023-05-12T01:53:25.557Z,1089.63
2023-05-12T01:54:10.794Z,1100.62
2023-05-12T01:54:55.756Z,1107.62
2023-05-12T01:55:40.595Z,1103.62
2023-05-12T01:56:25.765Z,1101.19
2023-05-12T01:57:10.607Z,1092.45
2023-05-12T01:57:56.233Z,1097.19
2023-05-12T01:58:41.777Z,1097.44
2023-05-12T01:59:26.202Z,1103.44
2023-05-12T02:00:10.828Z,1097.44
2023-05-12T02:00:55.784Z,1095.44
2023-05-12T02:01:41.542Z,1100.33
2023-05-12T02:02:26.652Z,1095.33
2023-05-12T02:03:11.452Z,1101.62
2023-05-12T02:03:56.751Z,1094.62
2023-05-12T02:04:41.393Z,1100.44
2023-05-12T02:05:26.896Z,1091.45
2023-05-12T02:06:11.588Z,1094.44
2023-05-12T02:06:56.458Z,1084.45
2023-05-12T02:07:41.857Z,1085.63
2023-05-12T02:08:26.816Z,1089.33
2023-05-12T02:09:12.104Z,1089.33
2023-05-12T02:09:56.970Z,1068.70
2023-05-12T02:10:41.832Z,1098.75
2023-05-12T02:11:27.491Z,1106.75
2023-05-12T02:12:12.207Z,1091.75
2023-05-12T02:12:57.001Z,1094.75
2023-05-12T02:13:42.093Z,964.78
2023-05-12T02:14:27.428Z,1090.75
2023-05-12T02:15:12.553Z,987.77
2023-05-12T02:15:57.690Z,935.79
2023-05-12T02:16:42.488Z,893.80
2023-05-12T02:17:27.796Z,892.80
2023-05-12T02:18:12.767Z,802.82
2023-05-12T02:18:57.432Z,829.81
2023-05-12T02:19:42.940Z,1007.77
2023-05-12T02:20:28.198Z,819.81
2023-05-12T02:21:12.641Z,968.78
2023-05-12T02:21:57.983Z,817.81
2023-05-12T02:22:42.740Z,700.84
2023-05-12T02:23:28.219Z,614.86
2023-05-12T02:24:14.783Z,667.85
2023-05-12T02:24:58.511Z,688.76
2023-05-12T02:25:43.060Z,684.84
2023-05-12T02:26:28.496Z,596.83
2023-05-12T02:27:12.977Z,657.82
2023-05-12T02:27:58.025Z,632.82
2023-05-12T02:28:43.461Z,548.85
2023-05-12T02:29:28.170Z,605.86
2023-05-12T02:30:12.996Z,569.84
2023-05-12T02:30:58.410Z,571.87
2023-05-12T02:31:43.329Z,734.83
2023-05-12T02:32:28.628Z,540.88
2023-05-12T02:33:13.317Z,584.87
2023-05-12T02:33:58.576Z,526.88
2023-05-12T02:34:43.538Z,693.84
2023-05-12T02:35:28.761Z,631.86
2023-05-12T02:36:13.853Z,579.87
2023-05-12T02:36:58.492Z,746.83
2023-05-12T02:37:43.795Z,966.78
2023-05-12T02:38:28.739Z,830.81
2023-05-12T02:39:13.762Z,845.81
2023-05-12T02:39:58.722Z,947.83
2023-05-12T02:40:43.671Z,993.82
2023-05-12T02:41:29.059Z,1026.81
2023-05-12T02:42:13.888Z,1072.80
2023-05-12T02:42:59.150Z,1099.80
2023-05-12T02:43:44.108Z,1094.69
2023-05-12T02:44:29.156Z,1102.80
2023-05-12T02:45:14.449Z,1094.80
2023-05-12T02:45:59.308Z,1098.80
2023-05-12T02:46:44.432Z,1037.81
2023-05-12T02:47:29.215Z,1099.80
2023-05-12T02:48:14.346Z,1102.80
2023-05-12T02:48:59.755Z,1097.80
2023-05-12T02:49:44.913Z,1091.80
2023-05-12T02:50:30.027Z,1076.75
2023-05-12T02:51:14.705Z,1087.80
2023-05-12T02:51:59.732Z,1092.80
2023-05-12T02:52:44.797Z,1088.80
2023-05-12T02:53:30.435Z,1092.80
2023-05-12T02:54:15.125Z,1089.69
2023-05-12T02:55:00.084Z,1094.80
2023-05-12T02:55:45.011Z,1082.70
2023-05-12T02:56:31.885Z,1094.80
2023-05-12T02:57:15.020Z,1095.69
2023-05-12T02:58:00.489Z,1094.80
2023-05-12T02:58:45.437Z,1088.80
2023-05-12T02:59:30.050Z,1085.80
2023-05-12T03:00:15.385Z,1095.80
2023-05-12T03:01:09.990Z,1087.80
2023-05-12T03:01:45.612Z,1090.80
2023-05-12T03:02:31.696Z,1081.80
2023-05-12T03:03:15.885Z,1088.80
2023-05-12T03:04:00.681Z,1081.75
2023-05-12T03:04:45.689Z,1079.63
2023-05-12T03:05:30.648Z,1078.80
2023-05-12T03:06:15.898Z,1067.70
2023-05-12T03:07:00.764Z,1082.80
2023-05-12T03:07:45.610Z,1092.80
2023-05-12T03:08:30.979Z,1088.80
2023-05-12T03:09:15.946Z,1065.80
2023-05-12T03:10:00.992Z,1077.80
2023-05-12T03:10:45.941Z,1085.70
2023-05-12T03:11:30.993Z,1086.75
2023-05-12T03:12:15.948Z,1069.76
2023-05-12T03:13:01.429Z,1082.80
2023-05-12T03:13:45.959Z,1084.80
2023-05-12T03:14:31.738Z,1090.80
2023-05-12T03:15:17.154Z,1071.80
2023-05-12T03:16:01.755Z,1071.80
2023-05-12T03:16:46.434Z,1093.80
2023-05-12T03:17:31.593Z,1093.80
2023-05-12T03:18:16.732Z,1095.80
2023-05-12T03:19:47.125Z,1083.80
2023-05-12T03:20:31.974Z,1088.80
2023-05-12T03:21:16.770Z,1085.80
2023-05-12T03:22:02.012Z,1094.80
2023-05-12T03:22:46.640Z,1093.80
2023-05-12T03:23:32.204Z,1099.75
2023-05-12T03:24:17.163Z,1094.75
2023-05-12T03:25:02.213Z,1093.62
2023-05-12T03:25:47.267Z,1094.69
2023-05-12T03:26:32.570Z,1100.69
2023-05-12T03:27:17.305Z,1106.75
2023-05-12T03:28:02.336Z,1098.80
2023-05-12T03:28:47.597Z,1099.84
2023-05-12T03:29:32.792Z,1091.84
2023-05-12T03:30:17.771Z,1100.90
2023-05-12T03:31:02.497Z,1093.90
2023-05-12T03:31:47.866Z,1101.90
2023-05-12T03:32:32.827Z,1100.90
2023-05-12T03:33:17.586Z,1097.90
2023-05-12T03:34:02.691Z,1100.90
2023-05-12T03:34:48.460Z,1081.92
2023-05-12T03:35:32.709Z,1076.92
2023-05-12T03:36:17.977Z,1102.92
2023-05-12T03:37:02.925Z,1094.92
2023-05-12T03:37:48.020Z,1093.92
2023-05-12T03:38:33.350Z,1100.92
2023-05-12T03:39:17.976Z,1100.92
2023-05-12T03:40:03.050Z,1082.92
2023-05-12T03:40:48.193Z,1094.92
2023-05-12T03:41:33.456Z,1098.92
2023-05-12T03:42:18.392Z,1079.92
2023-05-12T03:43:02.952Z,1085.92
2023-05-12T03:43:48.322Z,1082.92
2023-05-12T03:44:33.270Z,1077.90
2023-05-12T03:45:18.832Z,1060.90
2023-05-12T03:46:03.517Z,1070.84
2023-05-12T03:46:48.548Z,1058.84
2023-05-12T03:47:33.893Z,1089.84
2023-05-12T03:48:18.439Z,1089.84
2023-05-12T03:49:03.832Z,1087.80
2023-05-12T03:49:48.672Z,1079.70
2023-05-12T03:50:33.625Z,1087.80
2023-05-12T03:51:18.697Z,1088.80
2023-05-12T03:52:03.751Z,1055.76
2023-05-12T03:52:48.793Z,1056.76
2023-05-12T03:53:34.289Z,1038.76
2023-05-12T03:54:18.908Z,1029.71
2023-05-12T03:55:03.859Z,1013.72
2023-05-12T03:55:48.813Z,1071.70
2023-05-12T03:56:34.442Z,1054.64
2023-05-12T03:57:18.924Z,1039.71
2023-05-12T03:58:04.217Z,1017.65
2023-05-12T03:58:49.259Z,1005.72
2023-05-12T03:59:34.764Z,1032.65
2023-05-12T04:00:20.666Z,1019.38
2023-05-12T04:01:05.142Z,1004.38
2023-05-12T04:01:50.149Z,1011.65
2023-05-12T04:02:34.550Z,994.66
2023-05-12T04:03:19.435Z,1016.38
2023-05-12T04:04:04.448Z,966.73
2023-05-12T04:04:49.385Z,956.51
2023-05-12T04:05:35.282Z,984.66
2023-05-12T04:06:19.602Z,954.67
2023-05-12T04:07:04.593Z,942.74
2023-05-12T04:07:49.716Z,942.79
2023-05-12T04:08:34.872Z,958.73
2023-05-12T04:09:19.662Z,978.82
2023-05-12T04:10:04.786Z,1037.71
2023-05-12T04:10:49.888Z,999.77
2023-05-12T04:11:34.962Z,989.77
2023-05-12T04:12:20.106Z,978.78
2023-05-12T04:13:05.377Z,1011.77
2023-05-12T04:13:50.232Z,1093.80
2023-05-12T04:14:42.305Z,1066.80
2023-05-12T04:15:20.280Z,1052.84
2023-05-12T04:16:05.381Z,964.82
2023-05-12T04:16:50.692Z,996.85
2023-05-12T04:17:35.881Z,998.85
2023-05-12T04:18:20.424Z,977.78
2023-05-12T04:19:06.116Z,967.86
2023-05-12T04:19:50.779Z,971.86
2023-05-12T04:20:35.677Z,981.82
2023-05-12T04:21:20.541Z,979.82
2023-05-12T04:22:05.748Z,969.82
2023-05-12T04:22:50.864Z,985.82
2023-05-12T04:23:35.694Z,1050.76
2023-05-12T04:24:20.852Z,1049.76
2023-05-12T04:25:06.052Z,1032.65
2023-05-12T04:25:50.883Z,998.77
2023-05-12T04:26:35.611Z,1084.75
2023-05-12T04:27:21.398Z,1091.80
2023-05-12T04:28:06.134Z,1093.80
2023-05-12T04:28:51.413Z,1103.75
2023-05-12T04:29:36.045Z,1081.75
2023-05-12T04:30:21.210Z,1077.45
2023-05-12T04:31:06.177Z,1082.70
2023-05-12T04:31:51.478Z,1091.69
2023-05-12T04:32:36.458Z,1099.69
2023-05-12T04:33:21.577Z,1092.63
2023-05-12T04:34:06.419Z,1092.63
2023-05-12T04:34:51.145Z,1099.62
2023-05-12T04:35:36.397Z,975.67
2023-05-12T04:36:21.703Z,901.79
2023-05-12T04:37:06.779Z,1092.69
2023-05-12T04:37:51.851Z,950.82
2023-05-12T04:38:37.374Z,883.84
2023-05-12T04:39:21.789Z,886.87
2023-05-12T04:40:06.953Z,872.87
2023-05-12T04:40:51.892Z,909.87
2023-05-12T04:41:36.908Z,909.91
2023-05-12T04:42:21.905Z,920.86
2023-05-12T04:43:06.957Z,925.86
2023-05-12T04:44:36.988Z,889.84
2023-05-12T04:45:22.194Z,932.83
2023-05-12T04:46:07.301Z,922.83
2023-05-12T04:46:52.347Z,934.74
2023-05-12T04:47:37.174Z,1094.84
2023-05-12T04:48:22.399Z,1102.95
2023-05-12T04:49:07.422Z,1004.95
2023-05-12T04:49:52.605Z,1105.94
2023-05-12T04:50:37.836Z,1096.92
2023-05-12T04:51:22.700Z,1099.90
2023-05-12T04:52:07.686Z,1096.90
2023-05-12T04:52:52.800Z,1104.84
2023-05-12T04:53:37.755Z,1104.90
2023-05-12T04:54:22.609Z,1103.90
2023-05-12T04:55:07.993Z,1107.92
2023-05-12T04:55:53.031Z,1094.92
2023-05-12T04:56:37.876Z,1109.90
2023-05-12T04:57:22.935Z,1104.90
2023-05-12T04:58:08.201Z,1112.90
2023-05-12T04:58:53.250Z,1095.90
2023-05-12T04:59:39.915Z,997.91
2023-05-12T05:00:23.366Z,1060.92
2023-05-12T05:01:08.622Z,1025.94
2023-05-12T05:01:53.338Z,1041.95
2023-05-12T05:02:38.691Z,1053.94
2023-05-12T05:03:23.636Z,1062.95
2023-05-12T05:04:08.851Z,1022.95
2023-05-12T05:04:53.749Z,1021.95
2023-05-12T05:05:38.498Z,1056.94
2023-05-12T05:06:23.828Z,1009.94
2023-05-12T05:07:08.570Z,1027.95
2023-05-12T05:07:53.776Z,980.94
2023-05-12T05:08:38.899Z,983.93
2023-05-12T05:09:23.574Z,1097.92
2023-05-12T05:10:09.556Z,1087.90
2023-05-12T05:10:54.179Z,1084.92
2023-05-12T05:11:39.010Z,1083.95
2023-05-12T05:12:24.072Z,1089.95
2023-05-12T05:13:09.033Z,1095.95
2023-05-12T05:13:54.398Z,1102.94
2023-05-12T05:14:39.437Z,1112.92
2023-05-12T05:15:24.662Z,1106.92
2023-05-12T05:16:09.464Z,860.94
2023-05-12T05:16:54.226Z,765.94
2023-05-12T05:17:39.357Z,884.93
2023-05-12T05:18:24.734Z,825.94
2023-05-12T05:19:19.218Z,858.98
2023-05-12T05:19:58.469Z,1070.99
2023-05-12T05:20:40.831Z,857.99
2023-05-12T05:21:25.072Z,857.99
2023-05-12T05:22:09.722Z,868.99
2023-05-12T05:22:55.218Z,988.98
2023-05-12T05:23:39.916Z,1097.98
2023-05-12T05:24:24.971Z,1041.96
2023-05-12T05:25:09.802Z,1091.96
2023-05-12T05:25:54.883Z,1040.99
2023-05-12T05:26:40.259Z,1033.98
2023-05-12T05:27:24.887Z,996.98
2023-05-12T05:28:10.249Z,963.98
2023-05-12T05:28:55.241Z,884.97
2023-05-12T05:29:40.769Z,1095.98
2023-05-12T05:30:25.050Z,953.99
2023-05-12T05:31:10.078Z,761.98
2023-05-12T05:31:55.469Z,914.98
2023-05-12T05:32:41.982Z,754.97
2023-05-12T05:33:25.336Z,780.97
2023-05-12T05:34:10.686Z,681.98
2023-05-12T05:34:55.453Z,642.98
2023-05-12T05:35:40.509Z,648.98
2023-05-12T05:36:26.199Z,702.98
2023-05-12T05:37:10.945Z,719.97
2023-05-12T05:37:55.673Z,763.94
2023-05-12T05:38:40.630Z,648.95
2023-05-12T05:39:25.786Z,504.97
2023-05-12T05:40:10.752Z,536.98
2023-05-12T05:40:55.894Z,418.98
2023-05-12T05:41:41.064Z,420.99
2023-05-12T05:42:26.216Z,529.98
2023-05-12T05:43:10.998Z,705.98
2023-05-12T05:43:56.148Z,442.99
2023-05-12T05:44:41.075Z,418.00
2023-05-12T05:45:27.644Z,603.99
2023-05-12T05:46:11.789Z,643.99
2023-05-12T05:46:56.319Z,722.99
2023-05-12T05:47:41.033Z,917.98
2023-05-12T05:48:26.487Z,868.97
2023-05-12T05:49:11.421Z,665.98
2023-05-12T05:49:56.899Z,565.98
2023-05-12T05:50:41.426Z,520.98
2023-05-12T05:51:26.873Z,559.98
2023-05-12T05:52:12.059Z,778.97
2023-05-12T05:52:56.746Z,472.98
2023-05-12T05:53:41.658Z,523.00
2023-05-12T05:54:27.209Z,454.00
2023-05-12T05:55:11.979Z,722.99
2023-05-12T05:55:56.622Z,453.99
2023-05-12T05:56:41.525Z,446.99
2023-05-12T05:57:26.636Z,451.99
2023-05-12T05:58:12.521Z,437.99
2023-05-12T05:58:56.986Z,414.99
2023-05-12T05:59:41.701Z,670.99
2023-05-12T06:00:26.852Z,539.99
2023-05-12T06:01:12.262Z,479.99
2023-05-12T06:01:57.056Z,510.99
2023-05-12T06:02:42.256Z,557.00
2023-05-12T06:03:27.959Z,729.00
2023-05-12T06:04:12.293Z,696.99
2023-05-12T06:04:57.306Z,637.99
2023-05-12T06:05:42.372Z,725.00
2023-05-12T06:06:28.520Z,867.99
2023-05-12T06:07:12.470Z,838.99
2023-05-12T06:07:57.417Z,770.00
2023-05-12T06:08:42.405Z,717.00
2023-05-12T06:09:27.842Z,736.00
2023-05-12T06:10:13.608Z,757.00
2023-05-12T06:10:57.904Z,992.99
2023-05-12T06:11:42.715Z,948.00
2023-05-12T06:12:28.111Z,742.00
2023-05-12T06:13:12.548Z,808.00
2023-05-12T06:13:58.532Z,1066.99
2023-05-12T06:14:42.745Z,778.99
2023-05-12T06:15:27.807Z,830.99
2023-05-12T06:16:12.920Z,751.00
2023-05-12T06:16:58.686Z,972.00
2023-05-12T06:17:43.304Z,964.00
2023-05-12T06:18:28.152Z,725.00
2023-05-12T06:19:13.094Z,851.00
2023-05-12T06:19:58.011Z,991.99
2023-05-12T06:20:43.761Z,822.99
2023-05-12T06:21:28.494Z,773.99
2023-05-12T06:22:12.975Z,954.99
2023-05-12T06:22:58.486Z,988.99
2023-05-12T06:23:43.349Z,686.99
2023-05-12T06:24:28.573Z,657.00
2023-05-12T06:25:13.833Z,635.00
2023-05-12T06:25:58.603Z,636.99
2023-05-12T06:26:43.413Z,642.99
2023-05-12T06:27:28.481Z,874.99
2023-05-12T06:28:13.320Z,555.00
2023-05-12T06:28:58.597Z,601.00
2023-05-12T06:29:43.621Z,759.00
2023-05-12T06:30:28.612Z,801.99
2023-05-12T06:31:14.645Z,682.99
2023-05-12T06:31:59.262Z,606.99
2023-05-12T06:32:43.852Z,820.99
2023-05-12T06:33:29.044Z,697.99
2023-05-12T06:34:13.939Z,618.99
2023-05-12T06:34:59.196Z,650.99
2023-05-12T06:35:43.997Z,889.99
2023-05-12T06:36:29.053Z,799.99
2023-05-12T06:37:14.064Z,705.00
2023-05-12T06:37:59.174Z,1114.99
2023-05-12T06:38:44.586Z,1110.99
2023-05-12T06:39:29.686Z,1002.99
2023-05-12T06:40:14.555Z,1052.99
2023-05-12T06:40:59.622Z,1080.99
2023-05-12T06:41:44.402Z,1091.99
2023-05-12T06:42:29.418Z,864.99
2023-05-12T06:43:14.782Z,937.99
2023-05-12T06:43:59.227Z,1100.99
2023-05-12T06:44:44.468Z,797.99
2023-05-12T06:45:30.046Z,901.99
2023-05-12T06:46:14.918Z,895.99
2023-05-12T06:47:00.179Z,898.99
2023-05-12T06:47:44.951Z,874.99
2023-05-12T06:48:30.678Z,795.99
2023-05-12T06:49:15.048Z,780.99
2023-05-12T06:50:00.525Z,786.99
2023-05-12T06:50:45.650Z,790.99
2023-05-12T06:51:31.008Z,812.99
2023-05-12T06:52:15.236Z,726.99
2023-05-12T06:53:00.311Z,831.99
2023-05-12T06:53:45.401Z,966.99
2023-05-12T06:54:30.314Z,843.99
2023-05-12T06:55:16.184Z,785.99
2023-05-12T06:56:00.531Z,782.99
2023-05-12T06:56:45.418Z,809.99
2023-05-12T06:57:30.533Z,764.99
2023-05-12T06:58:16.322Z,712.99
2023-05-12T06:59:00.650Z,709.99
2023-05-12T06:59:45.616Z,694.99
2023-05-12T07:00:31.055Z,584.99
2023-05-12T07:01:15.868Z,582.99
2023-05-12T07:02:00.831Z,626.99
2023-05-12T07:02:45.938Z,656.00
2023-05-12T07:03:31.026Z,612.00
2023-05-12T07:04:16.055Z,777.00
2023-05-12T07:05:01.039Z,1018.99
2023-05-12T07:05:46.020Z,866.99
2023-05-12T07:06:31.309Z,648.00
2023-05-12T07:07:16.276Z,659.00
2023-05-12T07:08:03.487Z,831.00
2023-05-12T07:08:46.380Z,733.00
2023-05-12T07:09:31.388Z,809.00
2023-05-12T07:10:16.493Z,813.00
2023-05-12T07:11:01.451Z,677.00
2023-05-12T07:11:46.403Z,257.00
2023-05-12T07:12:31.467Z,209.00
2023-05-12T07:13:16.436Z,178.00
2023-05-12T07:14:01.465Z,124.00
2023-05-12T07:14:46.641Z,163.00
2023-05-12T07:15:32.732Z,177.00
2023-05-12T07:16:16.940Z,163.00
2023-05-12T07:17:01.599Z,148.00
2023-05-12T07:17:46.476Z,312.00
2023-05-12T07:18:32.176Z,327.00
2023-05-12T07:19:16.973Z,280.00
2023-05-12T07:20:02.047Z,282.00
2023-05-12T07:20:47.184Z,267.00
2023-05-12T07:21:32.754Z,225.00
2023-05-12T07:22:17.106Z,232.00
2023-05-12T07:23:02.041Z,215.00
2023-05-12T07:23:46.994Z,337.00
2023-05-12T07:24:32.256Z,289.00
2023-05-12T07:25:18.081Z,410.00
2023-05-12T07:26:02.581Z,131.00
2023-05-12T07:26:47.768Z,111.00
2023-05-12T07:27:32.707Z,139.00
2023-05-12T07:28:17.350Z,105.00
2023-05-12T07:29:02.590Z,95.00
2023-05-12T07:29:47.448Z,160.00
2023-05-12T07:30:33.525Z,217.00
2023-05-12T07:31:17.866Z,234.00
2023-05-12T07:32:02.619Z,292.00
2023-05-12T07:32:48.001Z,283.00
2023-05-12T07:33:32.838Z,298.00
2023-05-12T07:34:17.732Z,255.00
2023-05-12T07:35:02.785Z,251.00
2023-05-12T07:35:47.607Z,448.00
2023-05-12T07:36:33.209Z,162.00
2023-05-12T07:37:18.149Z,115.00
2023-05-12T07:38:02.971Z,164.00
2023-05-12T07:38:49.150Z,196.00
2023-05-12T07:39:32.671Z,309.00
2023-05-12T07:40:18.342Z,159.00
2023-05-12T07:41:03.191Z,257.00
2023-05-12T07:41:47.899Z,269.00
2023-05-12T07:42:33.311Z,110.00
2023-05-12T07:43:18.463Z,114.00
2023-05-12T07:44:03.323Z,88.00
2023-05-12T07:44:48.372Z,72.00
2023-05-12T07:45:33.328Z,135.00
2023-05-12T07:46:18.750Z,88.00
2023-05-12T07:47:03.935Z,92.00
2023-05-12T07:47:48.773Z,128.00
2023-05-12T07:48:34.080Z,128.00
2023-05-12T07:49:18.824Z,110.00
2023-05-12T07:50:03.868Z,95.00
2023-05-12T07:50:49.034Z,103.00
2023-05-12T07:51:34.449Z,126.00
2023-05-12T07:52:19.185Z,101.00
2023-05-12T07:53:04.205Z,107.00
2023-05-12T07:53:49.106Z,171.99
2023-05-12T07:54:34.209Z,239.00
2023-05-12T07:55:19.625Z,122.00
2023-05-12T07:56:04.552Z,113.00
2023-05-12T07:56:49.690Z,130.00
2023-05-12T07:57:34.752Z,102.00
2023-05-12T07:58:19.497Z,96.00
2023-05-12T07:59:05.692Z,113.00
2023-05-12T07:59:49.800Z,117.00
2023-05-12T08:00:34.779Z,205.00
2023-05-12T08:01:19.643Z,177.00
2023-05-12T08:02:04.912Z,124.00
2023-05-12T08:02:50.590Z,95.00
2023-05-12T08:03:34.532Z,215.00
2023-05-12T08:04:19.868Z,308.00
2023-05-12T08:05:05.049Z,274.00
2023-05-12T08:05:50.108Z,199.00
2023-05-12T08:06:34.796Z,207.00
2023-05-12T08:07:19.974Z,198.00
2023-05-12T08:08:04.916Z,184.00
2023-05-12T08:08:49.867Z,230.00
2023-05-12T08:09:35.337Z,191.00
2023-05-12T08:10:20.294Z,190.00
2023-05-12T08:11:05.141Z,263.00
2023-05-12T08:11:51.431Z,234.00
2023-05-12T08:12:35.838Z,283.00
2023-05-12T08:13:20.341Z,250.00
2023-05-12T08:14:05.305Z,198.00
2023-05-12T08:14:50.974Z,374.00
2023-05-12T08:15:35.193Z,502.00
2023-05-12T08:16:20.763Z,385.00
2023-05-12T08:17:05.568Z,318.00
2023-05-12T08:17:50.903Z,308.00
2023-05-12T08:18:36.360Z,478.00
2023-05-12T08:19:21.276Z,413.00
2023-05-12T08:20:06.023Z,295.00
2023-05-12T08:20:53.095Z,283.00
2023-05-12T08:21:36.108Z,283.00
2023-05-12T08:22:21.062Z,273.00
2023-05-12T08:23:06.372Z,207.00
2023-05-12T08:23:51.624Z,237.00
2023-05-12T08:24:36.267Z,255.00
2023-05-12T08:25:23.489Z,275.00
2023-05-12T08:26:06.189Z,301.00
2023-05-12T08:26:51.332Z,369.00
2023-05-12T08:27:36.200Z,410.00
2023-05-12T08:28:21.567Z,410.00
2023-05-12T08:29:06.623Z,417.00
2023-05-12T08:29:51.581Z,405.00
2023-05-12T08:30:36.542Z,372.00
2023-05-12T08:31:21.622Z,373.00
2023-05-12T08:32:07.237Z,419.00
2023-05-12T08:32:51.799Z,412.00
2023-05-12T08:33:37.143Z,410.00
2023-05-12T08:34:22.522Z,362.00
2023-05-12T08:35:06.798Z,425.00
2023-05-12T08:35:52.003Z,350.00
2023-05-12T08:36:37.281Z,456.00
2023-05-12T08:37:22.168Z,533.99
2023-05-12T08:38:07.113Z,368.00
2023-05-12T08:38:51.955Z,369.00
2023-05-12T08:39:36.889Z,396.00
2023-05-12T08:40:22.069Z,379.00
2023-05-12T08:41:07.410Z,320.00
2023-05-12T08:41:52.450Z,287.00
2023-05-12T08:42:37.209Z,341.00
2023-05-12T08:43:22.441Z,285.00
2023-05-12T08:44:07.420Z,285.00
2023-05-12T08:44:52.271Z,298.00
2023-05-12T08:45:37.542Z,230.00
2023-05-12T08:46:22.843Z,265.00
2023-05-12T08:47:07.546Z,314.00
2023-05-12T08:47:52.675Z,364.99
2023-05-12T08:48:38.094Z,231.00
2023-05-12T08:49:22.763Z,399.99
2023-05-12T08:50:07.667Z,354.99
2023-05-12T08:50:52.647Z,349.99
2023-05-12T08:51:37.994Z,469.99
2023-05-12T08:52:23.061Z,319.99
2023-05-12T08:53:08.178Z,250.99
2023-05-12T08:53:53.374Z,258.99
2023-05-12T08:54:48.679Z,213.00
2023-05-12T08:55:24.531Z,234.00
2023-05-12T08:57:39.779Z,368.99
2023-05-12T08:58:30.561Z,254.00
2023-05-12T08:59:08.530Z,240.00
2023-05-12T08:59:53.614Z,224.00
2023-05-12T09:00:38.497Z,219.00
2023-05-12T09:01:23.319Z,419.00
2023-05-12T09:02:08.716Z,277.00
2023-05-12T09:02:55.041Z,231.00
2023-05-12T09:03:38.798Z,231.00
2023-05-12T09:04:23.869Z,208.00
2023-05-12T09:05:08.928Z,177.00
2023-05-12T09:05:54.413Z,370.00
2023-05-12T09:06:38.969Z,299.00
2023-05-12T09:07:23.959Z,299.00
2023-05-12T09:08:08.948Z,224.00
2023-05-12T09:08:54.082Z,237.00
2023-05-12T09:09:39.176Z,266.00
2023-05-12T09:10:34.509Z,214.00
2023-05-12T09:11:11.813Z,194.00
2023-05-12T09:11:54.138Z,232.00
2023-05-12T09:12:39.488Z,220.00
2023-05-12T09:13:24.316Z,223.00
2023-05-12T09:14:09.193Z,238.00
2023-05-12T09:14:54.223Z,236.00
2023-05-12T09:15:39.432Z,231.00
2023-05-12T09:16:24.582Z,222.00